sensor_id;sensor_type;location;lat;lon;timestamp;temperature;humidity
53053;DHT22;38934;52.690;6.184;2022-07-04T00:00:24;14.40;99.90
53053;DHT22;38934;52.690;6.184;2022-07-04T00:02:50;14.30;99.90
53053;DHT22;38934;52.690;6.184;2022-07-04T00:05:17;14.30;99.90
53053;DHT22;38934;52.690;6.184;2022-07-04T00:07:48;14.20;99.90
53053;DHT22;38934;52.690;6.184;2022-07-04T00:10:16;14.20;99.90
53053;DHT22;38934;52.690;6.184;2022-07-04T00:12:43;14.20;99.90
53053;DHT22;38934;52.690;6.184;2022-07-04T00:15:10;14.10;99.90
53053;DHT22;38934;52.690;6.184;2022-07-04T00:17:36;14.10;99.90
53053;DHT22;38934;52.690;6.184;2022-07-04T00:20:04;14.30;99.90
53053;DHT22;38934;52.690;6.184;2022-07-04T00:22:30;14.10;99.90
53053;DHT22;38934;52.690;6.184;2022-07-04T00:24:55;14.20;99.90
53053;DHT22;38934;52.690;6.184;2022-07-04T00:27:21;14.00;99.90
53053;DHT22;38934;52.690;6.184;2022-07-04T00:29:46;14.10;99.90
53053;DHT22;38934;52.690;6.184;2022-07-04T00:32:12;14.00;99.90
53053;DHT22;38934;52.690;6.184;2022-07-04T00:34:38;14.00;99.90
53053;DHT22;38934;52.690;6.184;2022-07-04T00:37:04;14.10;99.90
53053;DHT22;38934;52.690;6.184;2022-07-04T00:39:30;14.00;99.90
53053;DHT22;38934;52.690;6.184;2022-07-04T00:41:56;14.00;99.90
53053;DHT22;38934;52.690;6.184;2022-07-04T00:44:21;14.00;99.90
53053;DHT22;38934;52.690;6.184;2022-07-04T00:46:47;13.90;99.90
53053;DHT22;38934;52.690;6.184;2022-07-04T00:49:14;13.90;99.90
53053;DHT22;38934;52.690;6.184;2022-07-04T00:51:41;14.00;99.90
53053;DHT22;38934;52.690;6.184;2022-07-04T00:54:09;13.90;99.90
53053;DHT22;38934;52.690;6.184;2022-07-04T00:56:36;13.80;99.90
53053;DHT22;38934;52.690;6.184;2022-07-04T00:59:02;13.80;99.90
53053;DHT22;38934;52.690;6.184;2022-07-04T01:01:28;13.80;99.90
53053;DHT22;38934;52.690;6.184;2022-07-04T01:03:54;13.80;99.90
53053;DHT22;38934;52.690;6.184;2022-07-04T01:06:20;13.70;99.90
53053;DHT22;38934;52.690;6.184;2022-07-04T01:08:47;13.80;99.90
53053;DHT22;38934;52.690;6.184;2022-07-04T01:11:12;13.60;99.90
53053;DHT22;38934;52.690;6.184;2022-07-04T01:13:39;13.70;99.90
53053;DHT22;38934;52.690;6.184;2022-07-04T01:16:06;13.70;99.90
53053;DHT22;38934;52.690;6.184;2022-07-04T01:18:32;13.60;99.90
53053;DHT22;38934;52.690;6.184;2022-07-04T01:20:58;13.60;99.90
53053;DHT22;38934;52.690;6.184;2022-07-04T01:23:24;13.60;99.90
53053;DHT22;38934;52.690;6.184;2022-07-04T01:25:49;13.50;99.90
53053;DHT22;38934;52.690;6.184;2022-07-04T01:28:18;13.50;99.90
53053;DHT22;38934;52.690;6.184;2022-07-04T01:30:44;13.50;99.90
53053;DHT22;38934;52.690;6.184;2022-07-04T01:33:10;13.60;99.90
53053;DHT22;38934;52.690;6.184;2022-07-04T01:35:36;13.50;99.90
53053;DHT22;38934;52.690;6.184;2022-07-04T01:38:02;13.40;99.90
53053;DHT22;38934;52.690;6.184;2022-07-04T01:40:27;13.40;99.90
53053;DHT22;38934;52.690;6.184;2022-07-04T01:42:53;13.40;99.90
53053;DHT22;38934;52.690;6.184;2022-07-04T01:45:18;13.30;99.90
53053;DHT22;38934;52.690;6.184;2022-07-04T01:47:44;13.30;99.90
53053;DHT22;38934;52.690;6.184;2022-07-04T01:50:10;13.30;99.90
53053;DHT22;38934;52.690;6.184;2022-07-04T01:52:40;13.20;99.90
53053;DHT22;38934;52.690;6.184;2022-07-04T01:55:07;13.30;99.90
53053;DHT22;38934;52.690;6.184;2022-07-04T01:57:33;13.20;99.90
53053;DHT22;38934;52.690;6.184;2022-07-04T01:59:59;13.50;99.90
53053;DHT22;38934;52.690;6.184;2022-07-04T02:02:43;13.30;99.90
53053;DHT22;38934;52.690;6.184;2022-07-04T02:05:09;13.30;99.90
53053;DHT22;38934;52.690;6.184;2022-07-04T02:07:35;13.40;99.90
53053;DHT22;38934;52.690;6.184;2022-07-04T02:10:01;13.30;99.90
53053;DHT22;38934;52.690;6.184;2022-07-04T02:12:27;13.30;99.90
53053;DHT22;38934;52.690;6.184;2022-07-04T02:15:11;13.20;99.90
53053;DHT22;38934;52.690;6.184;2022-07-04T02:17:37;13.20;99.90
53053;DHT22;38934;52.690;6.184;2022-07-04T02:20:03;13.20;99.90
53053;DHT22;38934;52.690;6.184;2022-07-04T02:22:30;13.20;99.90
53053;DHT22;38934;52.690;6.184;2022-07-04T02:24:56;13.20;99.90
53053;DHT22;38934;52.690;6.184;2022-07-04T02:27:22;13.20;99.90
53053;DHT22;38934;52.690;6.184;2022-07-04T02:29:48;13.20;99.90
53053;DHT22;38934;52.690;6.184;2022-07-04T02:32:13;13.20;99.90
53053;DHT22;38934;52.690;6.184;2022-07-04T02:34:39;13.20;99.90
53053;DHT22;38934;52.690;6.184;2022-07-04T02:37:05;13.20;99.90
53053;DHT22;38934;52.690;6.184;2022-07-04T02:39:31;13.20;99.90
53053;DHT22;38934;52.690;6.184;2022-07-04T02:41:56;13.30;99.90
53053;DHT22;38934;52.690;6.184;2022-07-04T02:44:22;13.10;99.90
53053;DHT22;38934;52.690;6.184;2022-07-04T02:46:47;13.10;99.90
53053;DHT22;38934;52.690;6.184;2022-07-04T02:49:13;13.10;99.90
53053;DHT22;38934;52.690;6.184;2022-07-04T02:51:39;13.10;99.90
53053;DHT22;38934;52.690;6.184;2022-07-04T02:54:05;13.10;99.90
53053;DHT22;38934;52.690;6.184;2022-07-04T02:56:30;13.10;99.90
53053;DHT22;38934;52.690;6.184;2022-07-04T02:58:56;13.10;99.90
53053;DHT22;38934;52.690;6.184;2022-07-04T03:01:21;13.10;99.90
53053;DHT22;38934;52.690;6.184;2022-07-04T03:03:47;13.10;99.90
53053;DHT22;38934;52.690;6.184;2022-07-04T03:06:13;13.10;99.90
53053;DHT22;38934;52.690;6.184;2022-07-04T03:08:39;13.10;99.90
53053;DHT22;38934;52.690;6.184;2022-07-04T03:11:05;13.10;99.90
53053;DHT22;38934;52.690;6.184;2022-07-04T03:13:31;13.10;99.90
53053;DHT22;38934;52.690;6.184;2022-07-04T03:15:57;13.10;99.90
53053;DHT22;38934;52.690;6.184;2022-07-04T03:18:22;13.10;99.90
53053;DHT22;38934;52.690;6.184;2022-07-04T03:20:48;13.10;99.90
53053;DHT22;38934;52.690;6.184;2022-07-04T03:23:15;13.10;99.90
53053;DHT22;38934;52.690;6.184;2022-07-04T03:25:40;13.10;99.90
53053;DHT22;38934;52.690;6.184;2022-07-04T03:28:07;13.10;99.90
53053;DHT22;38934;52.690;6.184;2022-07-04T03:30:33;13.30;99.90
53053;DHT22;38934;52.690;6.184;2022-07-04T03:32:59;13.00;99.90
53053;DHT22;38934;52.690;6.184;2022-07-04T03:35:25;13.00;99.90
53053;DHT22;38934;52.690;6.184;2022-07-04T03:37:51;13.00;99.90
53053;DHT22;38934;52.690;6.184;2022-07-04T03:40:18;13.10;99.90
53053;DHT22;38934;52.690;6.184;2022-07-04T03:42:43;13.00;99.90
53053;DHT22;38934;52.690;6.184;2022-07-04T03:45:09;13.10;99.90
53053;DHT22;38934;52.690;6.184;2022-07-04T03:47:35;13.10;99.90
53053;DHT22;38934;52.690;6.184;2022-07-04T03:50:01;13.10;99.90
53053;DHT22;38934;52.690;6.184;2022-07-04T03:52:27;13.00;99.90
53053;DHT22;38934;52.690;6.184;2022-07-04T03:54:53;13.10;99.90
53053;DHT22;38934;52.690;6.184;2022-07-04T03:57:18;13.10;99.90
53053;DHT22;38934;52.690;6.184;2022-07-04T03:59:44;13.10;99.90
53053;DHT22;38934;52.690;6.184;2022-07-04T04:02:09;13.10;99.90
53053;DHT22;38934;52.690;6.184;2022-07-04T04:04:35;13.10;99.90
53053;DHT22;38934;52.690;6.184;2022-07-04T04:07:19;13.20;99.90
53053;DHT22;38934;52.690;6.184;2022-07-04T04:09:45;13.30;99.90
53053;DHT22;38934;52.690;6.184;2022-07-04T04:12:11;13.40;99.90
53053;DHT22;38934;52.690;6.184;2022-07-04T04:14:36;13.40;99.90
53053;DHT22;38934;52.690;6.184;2022-07-04T04:17:02;13.50;99.90
53053;DHT22;38934;52.690;6.184;2022-07-04T04:19:28;13.50;99.90
53053;DHT22;38934;52.690;6.184;2022-07-04T04:21:53;13.50;99.90
53053;DHT22;38934;52.690;6.184;2022-07-04T04:24:19;13.60;99.90
53053;DHT22;38934;52.690;6.184;2022-07-04T04:26:44;13.60;99.90
53053;DHT22;38934;52.690;6.184;2022-07-04T04:29:10;13.80;99.90
53053;DHT22;38934;52.690;6.184;2022-07-04T04:31:36;13.80;99.90
53053;DHT22;38934;52.690;6.184;2022-07-04T04:34:01;13.90;99.90
53053;DHT22;38934;52.690;6.184;2022-07-04T04:36:27;13.90;99.90
53053;DHT22;38934;52.690;6.184;2022-07-04T04:38:53;14.00;99.90
53053;DHT22;38934;52.690;6.184;2022-07-04T04:41:18;14.20;99.90
53053;DHT22;38934;52.690;6.184;2022-07-04T04:43:44;14.00;99.90
53053;DHT22;38934;52.690;6.184;2022-07-04T04:46:10;14.10;99.90
53053;DHT22;38934;52.690;6.184;2022-07-04T04:48:35;14.10;99.90
53053;DHT22;38934;52.690;6.184;2022-07-04T04:51:01;14.10;99.90
53053;DHT22;38934;52.690;6.184;2022-07-04T04:53:27;14.20;99.90
53053;DHT22;38934;52.690;6.184;2022-07-04T04:55:53;14.20;99.90
53053;DHT22;38934;52.690;6.184;2022-07-04T04:58:19;14.30;99.90
53053;DHT22;38934;52.690;6.184;2022-07-04T05:00:45;14.30;99.90
53053;DHT22;38934;52.690;6.184;2022-07-04T05:03:11;14.40;99.90
53053;DHT22;38934;52.690;6.184;2022-07-04T05:05:37;14.70;99.90
53053;DHT22;38934;52.690;6.184;2022-07-04T05:08:03;15.30;99.90
53053;DHT22;38934;52.690;6.184;2022-07-04T05:10:29;15.90;99.90
53053;DHT22;38934;52.690;6.184;2022-07-04T05:12:54;16.80;99.90
53053;DHT22;38934;52.690;6.184;2022-07-04T05:15:21;18.00;99.90
53053;DHT22;38934;52.690;6.184;2022-07-04T05:17:46;18.90;99.90
53053;DHT22;38934;52.690;6.184;2022-07-04T05:20:12;19.60;99.90
53053;DHT22;38934;52.690;6.184;2022-07-04T05:22:38;19.80;99.90
53053;DHT22;38934;52.690;6.184;2022-07-04T05:25:04;19.60;99.90
53053;DHT22;38934;52.690;6.184;2022-07-04T05:27:30;19.10;99.90
53053;DHT22;38934;52.690;6.184;2022-07-04T05:29:57;18.50;99.90
53053;DHT22;38934;52.690;6.184;2022-07-04T05:32:24;18.10;99.90
53053;DHT22;38934;52.690;6.184;2022-07-04T05:34:49;17.50;99.90
53053;DHT22;38934;52.690;6.184;2022-07-04T05:37:15;17.00;99.90
53053;DHT22;38934;52.690;6.184;2022-07-04T05:39:41;16.80;99.90
53053;DHT22;38934;52.690;6.184;2022-07-04T05:42:06;16.60;99.90
53053;DHT22;38934;52.690;6.184;2022-07-04T05:44:32;16.40;99.90
53053;DHT22;38934;52.690;6.184;2022-07-04T05:46:57;16.30;99.90
53053;DHT22;38934;52.690;6.184;2022-07-04T05:49:23;16.40;99.90
53053;DHT22;38934;52.690;6.184;2022-07-04T05:51:48;16.90;99.90
53053;DHT22;38934;52.690;6.184;2022-07-04T05:54:14;18.10;99.90
53053;DHT22;38934;52.690;6.184;2022-07-04T05:56:40;19.60;99.90
53053;DHT22;38934;52.690;6.184;2022-07-04T05:59:08;20.70;99.90
53053;DHT22;38934;52.690;6.184;2022-07-04T06:01:33;22.20;99.90
53053;DHT22;38934;52.690;6.184;2022-07-04T06:03:59;23.40;99.90
53053;DHT22;38934;52.690;6.184;2022-07-04T06:06:24;23.80;99.90
53053;DHT22;38934;52.690;6.184;2022-07-04T06:08:50;23.30;99.90
53053;DHT22;38934;52.690;6.184;2022-07-04T06:11:15;22.20;99.90
53053;DHT22;38934;52.690;6.184;2022-07-04T06:13:43;21.30;99.90
53053;DHT22;38934;52.690;6.184;2022-07-04T06:16:08;20.70;99.90
53053;DHT22;38934;52.690;6.184;2022-07-04T06:18:34;20.40;99.90
53053;DHT22;38934;52.690;6.184;2022-07-04T06:21:00;20.70;99.90
53053;DHT22;38934;52.690;6.184;2022-07-04T06:23:25;21.00;99.90
53053;DHT22;38934;52.690;6.184;2022-07-04T06:25:51;21.70;99.90
53053;DHT22;38934;52.690;6.184;2022-07-04T06:28:16;22.50;99.90
53053;DHT22;38934;52.690;6.184;2022-07-04T06:30:42;22.90;99.90
53053;DHT22;38934;52.690;6.184;2022-07-04T06:33:08;22.90;99.90
53053;DHT22;38934;52.690;6.184;2022-07-04T06:35:34;22.50;99.90
53053;DHT22;38934;52.690;6.184;2022-07-04T06:38:18;22.10;99.90
53053;DHT22;38934;52.690;6.184;2022-07-04T06:40:44;21.60;99.90
53053;DHT22;38934;52.690;6.184;2022-07-04T06:43:10;21.70;99.90
53053;DHT22;38934;52.690;6.184;2022-07-04T06:45:35;22.60;99.90
53053;DHT22;38934;52.690;6.184;2022-07-04T06:48:05;23.40;99.90
53053;DHT22;38934;52.690;6.184;2022-07-04T06:50:31;24.00;99.90
53053;DHT22;38934;52.690;6.184;2022-07-04T06:53:05;24.80;99.90
53053;DHT22;38934;52.690;6.184;2022-07-04T06:55:31;25.50;99.90
53053;DHT22;38934;52.690;6.184;2022-07-04T06:57:57;25.90;99.90
53053;DHT22;38934;52.690;6.184;2022-07-04T07:00:23;25.80;99.90
53053;DHT22;38934;52.690;6.184;2022-07-04T07:02:49;25.70;99.90
53053;DHT22;38934;52.690;6.184;2022-07-04T07:05:14;25.40;99.90
53053;DHT22;38934;52.690;6.184;2022-07-04T07:07:41;25.50;99.90
53053;DHT22;38934;52.690;6.184;2022-07-04T07:10:07;25.50;99.90
53053;DHT22;38934;52.690;6.184;2022-07-04T07:12:34;24.90;99.90
53053;DHT22;38934;52.690;6.184;2022-07-04T07:15:00;24.00;99.90
53053;DHT22;38934;52.690;6.184;2022-07-04T07:17:26;23.10;99.90
53053;DHT22;38934;52.690;6.184;2022-07-04T07:19:52;22.40;99.90
53053;DHT22;38934;52.690;6.184;2022-07-04T07:22:18;22.90;99.90
53053;DHT22;38934;52.690;6.184;2022-07-04T07:24:44;23.90;99.90
53053;DHT22;38934;52.690;6.184;2022-07-04T07:27:10;25.00;99.90
53053;DHT22;38934;52.690;6.184;2022-07-04T07:29:37;25.30;99.90
53053;DHT22;38934;52.690;6.184;2022-07-04T07:32:03;24.90;99.90
53053;DHT22;38934;52.690;6.184;2022-07-04T07:34:29;24.20;99.90
53053;DHT22;38934;52.690;6.184;2022-07-04T07:36:55;23.40;99.90
53053;DHT22;38934;52.690;6.184;2022-07-04T07:39:20;22.60;99.90
53053;DHT22;38934;52.690;6.184;2022-07-04T07:41:46;22.60;99.90
53053;DHT22;38934;52.690;6.184;2022-07-04T07:44:12;22.00;99.90
53053;DHT22;38934;52.690;6.184;2022-07-04T07:46:39;22.20;99.90
53053;DHT22;38934;52.690;6.184;2022-07-04T07:49:04;23.10;99.90
53053;DHT22;38934;52.690;6.184;2022-07-04T07:51:30;23.90;99.90
53053;DHT22;38934;52.690;6.184;2022-07-04T07:53:56;24.10;99.90
53053;DHT22;38934;52.690;6.184;2022-07-04T07:56:22;24.30;99.90
53053;DHT22;38934;52.690;6.184;2022-07-04T07:58:48;24.30;99.90
53053;DHT22;38934;52.690;6.184;2022-07-04T08:01:14;23.90;99.90
53053;DHT22;38934;52.690;6.184;2022-07-04T08:03:39;24.40;99.90
53053;DHT22;38934;52.690;6.184;2022-07-04T08:06:24;24.30;99.90
53053;DHT22;38934;52.690;6.184;2022-07-04T08:08:49;23.60;99.90
53053;DHT22;38934;52.690;6.184;2022-07-04T08:11:16;24.00;99.90
53053;DHT22;38934;52.690;6.184;2022-07-04T08:13:42;25.00;99.90
53053;DHT22;38934;52.690;6.184;2022-07-04T08:16:07;25.80;99.90
53053;DHT22;38934;52.690;6.184;2022-07-04T08:18:34;26.30;99.90
53053;DHT22;38934;52.690;6.184;2022-07-04T08:20:59;26.40;99.90
53053;DHT22;38934;52.690;6.184;2022-07-04T08:23:26;26.90;99.90
53053;DHT22;38934;52.690;6.184;2022-07-04T08:25:52;26.80;99.90
53053;DHT22;38934;52.690;6.184;2022-07-04T08:28:17;26.50;99.40
53053;DHT22;38934;52.690;6.184;2022-07-04T08:30:43;26.80;99.70
53053;DHT22;38934;52.690;6.184;2022-07-04T08:33:08;27.20;98.80
53053;DHT22;38934;52.690;6.184;2022-07-04T08:35:34;26.90;97.10
53053;DHT22;38934;52.690;6.184;2022-07-04T08:38:00;26.70;97.40
53053;DHT22;38934;52.690;6.184;2022-07-04T08:40:27;26.60;96.80
53053;DHT22;38934;52.690;6.184;2022-07-04T08:42:53;27.00;96.30
53053;DHT22;38934;52.690;6.184;2022-07-04T08:45:26;26.90;95.20
53053;DHT22;38934;52.690;6.184;2022-07-04T08:47:54;26.80;93.80
53053;DHT22;38934;52.690;6.184;2022-07-04T08:50:26;27.10;93.20
53053;DHT22;38934;52.690;6.184;2022-07-04T08:52:58;27.30;91.70
53053;DHT22;38934;52.690;6.184;2022-07-04T08:55:25;27.50;91.20
53053;DHT22;38934;52.690;6.184;2022-07-04T08:58:10;26.80;89.80
53053;DHT22;38934;52.690;6.184;2022-07-04T09:00:52;25.40;90.00
53053;DHT22;38934;52.690;6.184;2022-07-04T09:03:19;24.30;91.50
53053;DHT22;38934;52.690;6.184;2022-07-04T09:05:45;23.60;94.40
53053;DHT22;38934;52.690;6.184;2022-07-04T09:08:11;23.80;98.10
53053;DHT22;38934;52.690;6.184;2022-07-04T09:10:37;24.70;98.40
53053;DHT22;38934;52.690;6.184;2022-07-04T09:13:05;25.20;96.00
53053;DHT22;38934;52.690;6.184;2022-07-04T09:15:32;25.10;94.20
53053;DHT22;38934;52.690;6.184;2022-07-04T09:17:59;25.00;93.40
53053;DHT22;38934;52.690;6.184;2022-07-04T09:20:27;25.20;92.00
53053;DHT22;38934;52.690;6.184;2022-07-04T09:22:54;25.30;91.50
53053;DHT22;38934;52.690;6.184;2022-07-04T09:25:21;24.80;91.20
53053;DHT22;38934;52.690;6.184;2022-07-04T09:27:52;24.30;90.20
53053;DHT22;38934;52.690;6.184;2022-07-04T09:30:23;23.90;91.30
53053;DHT22;38934;52.690;6.184;2022-07-04T09:32:56;23.70;91.00
53053;DHT22;38934;52.690;6.184;2022-07-04T09:35:30;23.60;91.80
53053;DHT22;38934;52.690;6.184;2022-07-04T09:38:03;24.00;92.20
53053;DHT22;38934;52.690;6.184;2022-07-04T09:40:35;24.50;92.40
53053;DHT22;38934;52.690;6.184;2022-07-04T09:43:21;24.80;91.00
53053;DHT22;38934;52.690;6.184;2022-07-04T09:45:58;24.60;90.10
53053;DHT22;38934;52.690;6.184;2022-07-04T09:48:24;24.30;86.80
53053;DHT22;38934;52.690;6.184;2022-07-04T09:50:50;23.80;86.10
53053;DHT22;38934;52.690;6.184;2022-07-04T09:53:16;23.50;87.00
53053;DHT22;38934;52.690;6.184;2022-07-04T09:55:42;23.40;89.00
53053;DHT22;38934;52.690;6.184;2022-07-04T09:58:13;23.70;90.00
53053;DHT22;38934;52.690;6.184;2022-07-04T10:00:46;24.30;91.00
53053;DHT22;38934;52.690;6.184;2022-07-04T10:03:30;25.00;89.40
53053;DHT22;38934;52.690;6.184;2022-07-04T10:06:06;25.00;87.20
53053;DHT22;38934;52.690;6.184;2022-07-04T10:08:33;24.90;87.30
53053;DHT22;38934;52.690;6.184;2022-07-04T10:11:00;24.40;86.90
53053;DHT22;38934;52.690;6.184;2022-07-04T10:13:26;24.30;88.70
53053;DHT22;38934;52.690;6.184;2022-07-04T10:15:52;24.50;89.90
53053;DHT22;38934;52.690;6.184;2022-07-04T10:18:20;24.60;86.60
53053;DHT22;38934;52.690;6.184;2022-07-04T10:20:46;24.40;84.90
53053;DHT22;38934;52.690;6.184;2022-07-04T10:23:12;24.30;82.90
53053;DHT22;38934;52.690;6.184;2022-07-04T10:25:38;24.20;81.50
53053;DHT22;38934;52.690;6.184;2022-07-04T10:28:05;24.10;83.60
53053;DHT22;38934;52.690;6.184;2022-07-04T10:30:35;24.10;83.10
53053;DHT22;38934;52.690;6.184;2022-07-04T10:33:07;24.20;83.90
53053;DHT22;38934;52.690;6.184;2022-07-04T10:35:51;24.20;83.10
53053;DHT22;38934;52.690;6.184;2022-07-04T10:38:27;24.20;82.20
53053;DHT22;38934;52.690;6.184;2022-07-04T10:41:06;24.30;85.00
53053;DHT22;38934;52.690;6.184;2022-07-04T10:48:36;23.60;82.10
53053;DHT22;38934;52.690;6.184;2022-07-04T10:51:03;23.70;82.40
53053;DHT22;38934;52.690;6.184;2022-07-04T10:53:30;23.80;82.00
53053;DHT22;38934;52.690;6.184;2022-07-04T10:58:41;24.00;81.70
53053;DHT22;38934;52.690;6.184;2022-07-04T11:01:15;24.10;81.60
53053;DHT22;38934;52.690;6.184;2022-07-04T11:09:20;23.70;80.90
53053;DHT22;38934;52.690;6.184;2022-07-04T11:12:04;23.90;81.20
53053;DHT22;38934;52.690;6.184;2022-07-04T11:14:35;23.90;81.40
53053;DHT22;38934;52.690;6.184;2022-07-04T11:17:07;23.90;80.10
53053;DHT22;38934;52.690;6.184;2022-07-04T11:19:33;23.80;81.40
53053;DHT22;38934;52.690;6.184;2022-07-04T11:21:58;23.70;80.70
53053;DHT22;38934;52.690;6.184;2022-07-04T11:24:26;23.70;80.30
53053;DHT22;38934;52.690;6.184;2022-07-04T11:26:52;23.70;82.30
53053;DHT22;38934;52.690;6.184;2022-07-04T11:29:18;23.70;82.40
53053;DHT22;38934;52.690;6.184;2022-07-04T11:31:46;23.70;81.50
53053;DHT22;38934;52.690;6.184;2022-07-04T11:34:12;23.60;80.90
53053;DHT22;38934;52.690;6.184;2022-07-04T11:36:39;23.50;81.70
53053;DHT22;38934;52.690;6.184;2022-07-04T11:39:07;23.40;82.20
53053;DHT22;38934;52.690;6.184;2022-07-04T11:41:38;23.30;82.00
53053;DHT22;38934;52.690;6.184;2022-07-04T11:44:25;23.30;83.00
53053;DHT22;38934;52.690;6.184;2022-07-04T11:47:15;23.50;83.90
53053;DHT22;38934;52.690;6.184;2022-07-04T11:49:52;23.30;82.20
53053;DHT22;38934;52.690;6.184;2022-07-04T11:52:20;23.10;82.80
53053;DHT22;38934;52.690;6.184;2022-07-04T11:54:47;23.30;82.60
53053;DHT22;38934;52.690;6.184;2022-07-04T11:57:19;23.30;81.90
53053;DHT22;38934;52.690;6.184;2022-07-04T12:00:12;23.20;81.40
53053;DHT22;38934;52.690;6.184;2022-07-04T12:02:39;23.20;81.20
53053;DHT22;38934;52.690;6.184;2022-07-04T12:05:08;23.20;81.90
53053;DHT22;38934;52.690;6.184;2022-07-04T12:07:36;23.20;80.00
53053;DHT22;38934;52.690;6.184;2022-07-04T12:10:16;23.10;80.80
53053;DHT22;38934;52.690;6.184;2022-07-04T12:15:26;23.10;80.70
53053;DHT22;38934;52.690;6.184;2022-07-04T12:18:00;23.10;80.70
53053;DHT22;38934;52.690;6.184;2022-07-04T12:20:26;23.10;80.70
53053;DHT22;38934;52.690;6.184;2022-07-04T12:22:54;23.20;80.40
53053;DHT22;38934;52.690;6.184;2022-07-04T12:25:32;23.20;80.50
53053;DHT22;38934;52.690;6.184;2022-07-04T12:28:00;23.20;80.30
53053;DHT22;38934;52.690;6.184;2022-07-04T12:30:27;23.30;80.90
53053;DHT22;38934;52.690;6.184;2022-07-04T12:32:57;23.40;81.00
53053;DHT22;38934;52.690;6.184;2022-07-04T12:35:45;23.40;77.10
53053;DHT22;38934;52.690;6.184;2022-07-04T12:41:10;23.40;77.60
53053;DHT22;38934;52.690;6.184;2022-07-04T12:46:27;23.30;74.40
53053;DHT22;38934;52.690;6.184;2022-07-04T12:48:56;23.10;73.90
53053;DHT22;38934;52.690;6.184;2022-07-04T12:53:50;23.00;76.20
53053;DHT22;38934;52.690;6.184;2022-07-04T12:56:30;23.10;77.10
53053;DHT22;38934;52.690;6.184;2022-07-04T12:59:10;23.10;76.90
53053;DHT22;38934;52.690;6.184;2022-07-04T13:01:36;23.10;75.70
53053;DHT22;38934;52.690;6.184;2022-07-04T13:04:03;23.20;76.20
53053;DHT22;38934;52.690;6.184;2022-07-04T13:06:29;23.10;74.80
53053;DHT22;38934;52.690;6.184;2022-07-04T13:08:56;23.10;74.90
53053;DHT22;38934;52.690;6.184;2022-07-04T13:11:22;23.00;74.10
53053;DHT22;38934;52.690;6.184;2022-07-04T13:14:07;23.00;76.00
53053;DHT22;38934;52.690;6.184;2022-07-04T13:16:33;23.10;76.30
53053;DHT22;38934;52.690;6.184;2022-07-04T13:18:58;23.20;75.00
53053;DHT22;38934;52.690;6.184;2022-07-04T13:21:24;23.10;72.60
53053;DHT22;38934;52.690;6.184;2022-07-04T13:23:52;22.90;71.80
53053;DHT22;38934;52.690;6.184;2022-07-04T13:26:17;22.90;73.40
53053;DHT22;38934;52.690;6.184;2022-07-04T13:28:43;22.90;73.20
53053;DHT22;38934;52.690;6.184;2022-07-04T13:31:09;22.80;72.40
53053;DHT22;38934;52.690;6.184;2022-07-04T13:33:35;22.90;72.10
53053;DHT22;38934;52.690;6.184;2022-07-04T13:36:00;22.70;73.20
53053;DHT22;38934;52.690;6.184;2022-07-04T13:38:26;22.80;73.80
53053;DHT22;38934;52.690;6.184;2022-07-04T13:40:52;22.90;73.40
53053;DHT22;38934;52.690;6.184;2022-07-04T13:43:18;23.00;71.40
53053;DHT22;38934;52.690;6.184;2022-07-04T13:45:43;23.00;71.30
53053;DHT22;38934;52.690;6.184;2022-07-04T13:48:12;23.00;72.00
53053;DHT22;38934;52.690;6.184;2022-07-04T13:50:38;23.10;74.20
53053;DHT22;38934;52.690;6.184;2022-07-04T13:53:05;23.20;74.10
53053;DHT22;38934;52.690;6.184;2022-07-04T13:55:31;23.30;71.30
53053;DHT22;38934;52.690;6.184;2022-07-04T13:57:57;23.10;70.60
53053;DHT22;38934;52.690;6.184;2022-07-04T14:00:24;23.00;70.40
53053;DHT22;38934;52.690;6.184;2022-07-04T14:02:49;22.90;70.20
53053;DHT22;38934;52.690;6.184;2022-07-04T14:05:15;22.90;69.80
53053;DHT22;38934;52.690;6.184;2022-07-04T14:07:41;23.00;70.90
53053;DHT22;38934;52.690;6.184;2022-07-04T14:10:07;23.10;70.80
53053;DHT22;38934;52.690;6.184;2022-07-04T14:12:33;23.20;69.80
53053;DHT22;38934;52.690;6.184;2022-07-04T14:14:58;23.20;68.00
53053;DHT22;38934;52.690;6.184;2022-07-04T14:17:25;23.20;69.20
53053;DHT22;38934;52.690;6.184;2022-07-04T14:19:50;23.20;69.60
53053;DHT22;38934;52.690;6.184;2022-07-04T14:22:16;23.20;69.40
53053;DHT22;38934;52.690;6.184;2022-07-04T14:24:41;23.10;67.50
53053;DHT22;38934;52.690;6.184;2022-07-04T14:27:07;22.90;68.60
53053;DHT22;38934;52.690;6.184;2022-07-04T14:29:32;23.00;68.20
53053;DHT22;38934;52.690;6.184;2022-07-04T14:31:59;23.00;68.60
53053;DHT22;38934;52.690;6.184;2022-07-04T14:34:25;23.00;67.80
53053;DHT22;38934;52.690;6.184;2022-07-04T14:36:51;22.90;68.90
53053;DHT22;38934;52.690;6.184;2022-07-04T14:39:17;23.00;71.60
53053;DHT22;38934;52.690;6.184;2022-07-04T14:41:43;23.10;69.30
53053;DHT22;38934;52.690;6.184;2022-07-04T14:44:08;23.10;69.80
53053;DHT22;38934;52.690;6.184;2022-07-04T14:46:34;22.90;68.60
53053;DHT22;38934;52.690;6.184;2022-07-04T14:48:59;22.80;69.80
53053;DHT22;38934;52.690;6.184;2022-07-04T14:51:25;22.90;70.00
53053;DHT22;38934;52.690;6.184;2022-07-04T14:53:51;23.00;68.80
53053;DHT22;38934;52.690;6.184;2022-07-04T14:56:17;23.00;69.10
53053;DHT22;38934;52.690;6.184;2022-07-04T14:58:42;23.10;70.40
53053;DHT22;38934;52.690;6.184;2022-07-04T15:01:08;23.10;70.70
53053;DHT22;38934;52.690;6.184;2022-07-04T15:03:33;23.10;69.30
53053;DHT22;38934;52.690;6.184;2022-07-04T15:05:59;23.00;68.70
53053;DHT22;38934;52.690;6.184;2022-07-04T15:08:25;23.10;68.90
53053;DHT22;38934;52.690;6.184;2022-07-04T15:10:51;23.00;69.00
53053;DHT22;38934;52.690;6.184;2022-07-04T15:13:16;23.20;69.30
53053;DHT22;38934;52.690;6.184;2022-07-04T15:15:42;23.10;69.90
53053;DHT22;38934;52.690;6.184;2022-07-04T15:18:07;23.10;68.90
53053;DHT22;38934;52.690;6.184;2022-07-04T15:20:33;23.00;68.80
53053;DHT22;38934;52.690;6.184;2022-07-04T15:23:17;23.10;69.40
53053;DHT22;38934;52.690;6.184;2022-07-04T15:26:01;23.10;69.00
53053;DHT22;38934;52.690;6.184;2022-07-04T15:28:27;23.10;69.00
53053;DHT22;38934;52.690;6.184;2022-07-04T15:30:53;23.10;68.40
53053;DHT22;38934;52.690;6.184;2022-07-04T15:33:19;23.10;70.60
53053;DHT22;38934;52.690;6.184;2022-07-04T15:35:45;23.10;69.40
53053;DHT22;38934;52.690;6.184;2022-07-04T15:38:11;23.10;69.10
53053;DHT22;38934;52.690;6.184;2022-07-04T15:40:37;23.20;69.10
53053;DHT22;38934;52.690;6.184;2022-07-04T15:43:05;23.20;68.80
53053;DHT22;38934;52.690;6.184;2022-07-04T15:45:31;23.20;68.10
53053;DHT22;38934;52.690;6.184;2022-07-04T15:47:56;23.00;68.70
53053;DHT22;38934;52.690;6.184;2022-07-04T15:50:22;23.20;68.90
53053;DHT22;38934;52.690;6.184;2022-07-04T15:52:49;23.20;68.50
53053;DHT22;38934;52.690;6.184;2022-07-04T15:55:14;23.00;67.20